Time,TemperatureF,DewpointF,PressureIn,WindDirection,WindDirectionDegrees,WindSpeedMPH,WindSpeedGustMPH,Humidity,HourlyPrecipIn,Conditions,Clouds,dailyrainin,SoftwareType,DateUTC
2013-05-06 00:03:00,54.1,41.7,29.86,NE,45,2.9,6.9,63,0.00,,,0.00,WUHU216HW,2013-05-06 05:03:00,
2013-05-06 00:08:00,54.1,41.3,29.86,NE,45,1.5,5.1,63,0.00,,,0.00,WUHU216HW,2013-05-06 05:08:00,
2013-05-06 00:13:00,54.1,41.3,29.86,East,90,4.0,4.0,62,0.00,,,0.00,WUHU216HW,2013-05-06 05:13:00,
2013-05-06 00:18:00,53.9,41.2,29.86,ENE,68,1.5,4.0,62,0.00,,,0.00,WUHU216HW,2013-05-06 05:18:00,
2013-05-06 00:23:00,53.7,40.6,29.85,NE,45,2.0,2.6,61,0.00,,,0.00,WUHU216HW,2013-05-06 05:23:00,
2013-05-06 00:28:00,53.7,40.6,29.86,NE,45,0.4,2.6,61,0.00,,,0.00,WUHU216HW,2013-05-06 05:28:00,
2013-05-06 00:33:00,53.7,40.2,29.86,NE,45,0.2,4.4,60,0.00,,,0.00,WUHU216HW,2013-05-06 05:33:00,
2013-05-06 00:38:00,53.7,40.2,29.86,NE,45,0.8,4.4,60,0.00,,,0.00,WUHU216HW,2013-05-06 05:38:00,
2013-05-06 00:43:00,53.4,39.9,29.85,NE,45,0.8,3.1,60,0.00,,,0.00,WUHU216HW,2013-05-06 05:43:00,
2013-05-06 00:48:00,53.4,39.9,29.85,NE,45,0.2,1.1,60,0.00,,,0.00,WUHU216HW,2013-05-06 05:48:00,
2013-05-06 00:53:00,53.2,39.2,29.85,NE,45,1.7,1.7,59,0.00,,,0.00,WUHU216HW,2013-05-06 05:53:00,
2013-05-06 00:59:00,53.2,39.2,29.85,NE,45,0.0,1.7,59,0.00,,,0.00,WUHU216HW,2013-05-06 05:59:00,
2013-05-06 01:04:00,52.8,38.9,29.85,NE,45,1.3,1.3,59,0.00,,,0.00,WUHU216HW,2013-05-06 06:04:00,
2013-05-06 01:09:00,52.5,38.5,29.85,NE,45,0.0,2.4,59,0.00,,,0.00,WUHU216HW,2013-05-06 06:09:00,
2013-05-06 01:14:00,52.5,39.0,29.84,NE,45,0.0,2.6,60,0.00,,,0.00,WUHU216HW,2013-05-06 06:14:00,
2013-05-06 01:19:00,52.3,39.0,29.85,NE,45,2.6,2.6,60,0.00,,,0.00,WUHU216HW,2013-05-06 06:19:00,
2013-05-06 01:24:00,52.3,38.3,29.84,NE,45,3.5,5.8,59,0.00,,,0.00,WUHU216HW,2013-05-06 06:24:00,
2013-05-06 01:29:00,52.5,38.5,29.85,NE,45,1.7,5.8,59,0.00,,,0.00,WUHU216HW,2013-05-06 06:29:00,
2013-05-06 01:34:00,52.5,38.1,29.85,NE,45,0.0,3.1,58,0.00,,,0.00,WUHU216HW,2013-05-06 06:34:00,
2013-05-06 01:39:00,52.5,38.1,29.84,NE,45,0.0,0.0,58,0.00,,,0.00,WUHU216HW,2013-05-06 06:39:00,
2013-05-06 01:44:00,52.5,38.1,29.84,NE,45,2.6,2.6,58,0.00,,,0.00,WUHU216HW,2013-05-06 06:44:00,
2013-05-06 01:50:00,52.7,37.8,29.85,NE,45,0.0,2.6,57,0.00,,,0.00,WUHU216HW,2013-05-06 06:50:00,
2013-05-06 01:55:00,52.5,37.6,29.85,NE,45,0.0,0.0,57,0.00,,,0.00,WUHU216HW,2013-05-06 06:55:00,
2013-05-06 02:00:00,51.9,37.5,29.85,NE,45,0.0,0.0,58,0.00,,,0.00,WUHU216HW,2013-05-06 07:00:00,
2013-05-06 02:05:00,51.4,37.0,29.84,NE,45,0.0,0.0,58,0.00,,,0.00,WUHU216HW,2013-05-06 07:05:00,
2013-05-06 02:10:00,51.0,37.2,29.84,NE,45,3.5,3.5,59,0.00,,,0.00,WUHU216HW,2013-05-06 07:10:00,
2013-05-06 02:15:00,51.2,37.3,29.84,NE,45,0.0,3.5,59,0.00,,,0.00,WUHU216HW,2013-05-06 07:15:00,
2013-05-06 02:20:00,51.4,37.5,29.84,NE,45,0.0,0.0,59,0.00,,,0.00,WUHU216HW,2013-05-06 07:20:00,
2013-05-06 02:25:00,51.2,37.3,29.83,NE,45,0.0,0.0,59,0.00,,,0.00,WUHU216HW,2013-05-06 07:25:00,
2013-05-06 02:30:00,51.0,37.2,29.83,NE,45,0.0,0.0,59,0.00,,,0.00,WUHU216HW,2013-05-06 07:30:00,
2013-05-06 02:35:00,50.7,36.8,29.84,NE,45,0.0,0.0,59,0.00,,,0.00,WUHU216HW,2013-05-06 07:35:00,
2013-05-06 02:40:00,50.1,36.8,29.84,NE,45,0.0,0.0,60,0.00,,,0.00,WUHU216HW,2013-05-06 07:40:00,
2013-05-06 02:45:00,49.2,36.4,29.84,NE,45,0.0,0.0,61,0.00,,,0.00,WUHU216HW,2013-05-06 07:45:00,
2013-05-06 02:50:00,48.3,36.7,29.84,NE,45,0.0,0.0,64,0.00,,,0.00,WUHU216HW,2013-05-06 07:50:00,
2013-05-06 02:55:00,47.8,36.2,29.83,NE,45,0.0,0.0,64,0.00,,,0.00,WUHU216HW,2013-05-06 07:55:00,
2013-05-06 03:00:00,47.4,35.8,29.84,NE,45,0.0,0.0,64,0.00,,,0.00,WUHU216HW,2013-05-06 08:00:00,
2013-05-06 03:05:00,47.1,35.9,29.84,NNE,23,0.0,0.0,65,0.00,,,0.00,WUHU216HW,2013-05-06 08:05:00,
2013-05-06 03:11:00,47.1,36.3,29.84,NNE,23,0.0,0.6,66,0.00,,,0.00,WUHU216HW,2013-05-06 08:11:00,
2013-05-06 03:16:00,47.6,37.0,29.84,NNE,23,0.0,0.6,67,0.00,,,0.00,WUHU216HW,2013-05-06 08:16:00,
2013-05-06 03:21:00,48.0,37.5,29.84,NNE,23,0.0,0.0,67,0.00,,,0.00,WUHU216HW,2013-05-06 08:21:00,
2013-05-06 03:26:00,48.0,37.5,29.84,NNE,23,0.0,0.0,67,0.00,,,0.00,WUHU216HW,2013-05-06 08:26:00,
2013-05-06 03:31:00,47.4,37.0,29.84,NNE,23,0.0,0.0,67,0.00,,,0.00,WUHU216HW,2013-05-06 08:31:00,
2013-05-06 03:36:00,46.9,36.5,29.84,NNE,23,0.0,0.0,67,0.00,,,0.00,WUHU216HW,2013-05-06 08:36:00,
2013-05-06 03:41:00,46.2,36.2,29.84,NNE,23,0.0,0.0,68,0.00,,,0.00,WUHU216HW,2013-05-06 08:41:00,
2013-05-06 03:46:00,46.0,36.4,29.84,NNE,23,0.0,0.0,69,0.00,,,0.00,WUHU216HW,2013-05-06 08:46:00,
2013-05-06 03:51:00,45.6,36.1,29.84,NNE,23,0.0,0.0,69,0.00,,,0.00,WUHU216HW,2013-05-06 08:51:00,
2013-05-06 03:56:00,45.3,36.1,29.85,NNE,23,0.0,0.0,70,0.00,,,0.00,WUHU216HW,2013-05-06 08:56:00,
2013-05-06 04:01:00,45.3,36.4,29.85,NNE,23,0.0,0.0,71,0.00,,,0.00,WUHU216HW,2013-05-06 09:01:00,
2013-05-06 04:07:00,45.6,37.1,29.85,NNE,23,0.0,0.0,72,0.00,,,0.00,WUHU216HW,2013-05-06 09:07:00,
2013-05-06 04:12:00,45.5,37.1,29.85,NNE,23,0.0,0.0,72,0.00,,,0.00,WUHU216HW,2013-05-06 09:12:00,
2013-05-06 04:17:00,45.5,37.0,29.85,NNE,23,0.0,0.0,72,0.00,,,0.00,WUHU216HW,2013-05-06 09:17:00,
2013-05-06 04:22:00,45.3,37.1,29.85,NNE,23,0.0,0.0,73,0.00,,,0.00,WUHU216HW,2013-05-06 09:22:00,
2013-05-06 04:27:00,45.3,37.1,29.85,NNE,23,0.0,0.0,73,0.00,,,0.00,WUHU216HW,2013-05-06 09:27:00,
2013-05-06 04:32:00,45.5,37.3,29.85,NNE,23,0.0,0.0,73,0.00,,,0.00,WUHU216HW,2013-05-06 09:32:00,
2013-05-06 04:37:00,45.1,36.9,29.86,NNE,23,0.0,0.0,73,0.00,,,0.00,WUHU216HW,2013-05-06 09:37:00,
2013-05-06 04:42:00,44.4,36.2,29.86,NNE,23,0.0,0.0,73,0.00,,,0.00,WUHU216HW,2013-05-06 09:42:00,
2013-05-06 04:47:00,44.2,36.4,29.85,NNE,23,0.0,0.0,74,0.00,,,0.00,WUHU216HW,2013-05-06 09:47:00,
2013-05-06 04:52:00,43.7,35.9,29.85,NNE,23,0.0,0.0,74,0.00,,,0.00,WUHU216HW,2013-05-06 09:52:00,
2013-05-06 04:57:00,43.5,35.7,29.85,NNE,23,0.0,0.0,74,0.00,,,0.00,WUHU216HW,2013-05-06 09:57:00,
2013-05-06 05:02:00,43.5,36.1,29.85,NNE,23,0.0,0.0,75,0.00,,,0.00,WUHU216HW,2013-05-06 10:02:00,
2013-05-06 05:08:00,43.3,35.9,29.85,NNE,23,0.0,0.0,75,0.00,,,0.00,WUHU216HW,2013-05-06 10:08:00,
2013-05-06 05:13:00,43.3,36.2,29.85,NNE,23,0.0,0.0,76,0.00,,,0.00,WUHU216HW,2013-05-06 10:13:00,
2013-05-06 05:18:00,43.1,36.0,29.86,NNE,23,0.0,0.0,76,0.00,,,0.00,WUHU216HW,2013-05-06 10:18:00,
2013-05-06 05:23:00,43.1,36.4,29.86,NNE,23,0.0,0.0,77,0.00,,,0.00,WUHU216HW,2013-05-06 10:23:00,
2013-05-06 05:28:00,43.3,36.9,29.86,NNE,23,0.0,0.0,78,0.00,,,0.00,WUHU216HW,2013-05-06 10:28:00,
2013-05-06 05:33:00,43.3,36.9,29.86,NNE,23,0.0,0.0,78,0.00,,,0.00,WUHU216HW,2013-05-06 10:33:00,
2013-05-06 05:38:00,43.3,36.9,29.86,North,0,0.0,0.0,78,0.00,,,0.00,WUHU216HW,2013-05-06 10:38:00,
2013-05-06 05:43:00,43.3,36.9,29.87,North,0,0.0,0.0,78,0.00,,,0.00,WUHU216HW,2013-05-06 10:43:00,
2013-05-06 05:48:00,43.5,37.4,29.87,North,0,2.6,2.6,79,0.00,,,0.00,WUHU216HW,2013-05-06 10:48:00,
2013-05-06 05:53:00,44.2,38.4,29.87,North,0,0.0,2.6,80,0.00,,,0.00,WUHU216HW,2013-05-06 10:53:00,
2013-05-06 05:59:00,44.7,39.3,29.87,NNE,23,0.0,0.0,81,0.00,,,0.00,WUHU216HW,2013-05-06 10:59:00,
2013-05-06 06:04:00,45.3,40.1,29.87,NNE,23,0.0,0.0,82,0.00,,,0.00,WUHU216HW,2013-05-06 11:04:00,
2013-05-06 06:09:00,46.0,40.8,29.87,North,0,0.0,0.6,82,0.00,,,0.00,WUHU216HW,2013-05-06 11:09:00,
2013-05-06 06:14:00,46.4,40.9,29.87,NNE,23,0.0,0.6,81,0.00,,,0.00,WUHU216HW,2013-05-06 11:14:00,
2013-05-06 06:19:00,46.9,41.7,29.87,North,0,0.0,0.0,82,0.00,,,0.00,WUHU216HW,2013-05-06 11:19:00,
2013-05-06 06:24:00,47.4,42.2,29.87,NNE,23,0.0,0.0,82,0.00,,,0.00,WUHU216HW,2013-05-06 11:24:00,
2013-05-06 06:29:00,48.0,42.7,29.87,NNE,23,0.0,0.0,82,0.00,,,0.00,WUHU216HW,2013-05-06 11:29:00,
2013-05-06 06:34:00,48.9,43.6,29.88,North,0,5.3,5.3,82,0.00,,,0.00,WUHU216HW,2013-05-06 11:34:00,
2013-05-06 06:39:00,49.6,44.0,29.88,NE,45,0.0,6.9,81,0.00,,,0.00,WUHU216HW,2013-05-06 11:39:00,
2013-05-06 06:44:00,50.1,44.2,29.87,NNE,23,2.6,6.9,80,0.00,,,0.00,WUHU216HW,2013-05-06 11:44:00,
2013-05-06 06:49:00,50.9,44.6,29.88,NNE,23,0.0,3.3,79,0.00,,,0.00,WUHU216HW,2013-05-06 11:49:00,
2013-05-06 06:54:00,51.8,44.8,29.88,NE,45,0.8,1.5,77,0.00,,,0.00,WUHU216HW,2013-05-06 11:54:00,
2013-05-06 06:59:00,52.7,45.3,29.88,NE,45,4.2,4.2,76,0.00,,,0.00,WUHU216HW,2013-05-06 11:59:00,
2013-05-06 07:04:00,53.7,46.0,29.88,NNE,23,5.5,5.5,74,0.00,,,0.00,WUHU216HW,2013-05-06 12:04:00,
2013-05-06 07:09:00,55.0,46.1,29.88,NE,45,2.4,5.5,72,0.00,,,0.00,WUHU216HW,2013-05-06 12:09:00,
2013-05-06 07:14:00,55.7,46.1,29.88,NNE,23,0.0,3.5,70,0.00,,,0.00,WUHU216HW,2013-05-06 12:14:00,
2013-05-06 07:19:00,55.7,45.3,29.89,ENE,68,2.2,4.6,68,0.00,,,0.00,WUHU216HW,2013-05-06 12:19:00,
2013-05-06 07:24:00,55.2,44.4,29.89,ENE,68,0.0,4.6,67,0.00,,,0.00,WUHU216HW,2013-05-06 12:24:00,
2013-05-06 07:29:00,54.6,43.9,29.89,NE,45,0.0,4.6,67,0.00,,,0.00,WUHU216HW,2013-05-06 12:29:00,
2013-05-06 07:34:00,54.6,43.9,29.89,NNE,23,0.0,2.9,67,0.00,,,0.00,WUHU216HW,2013-05-06 12:34:00,
2013-05-06 07:39:00,55.0,44.2,29.89,NE,45,0.0,1.5,67,0.00,,,0.00,WUHU216HW,2013-05-06 12:39:00,
2013-05-06 07:45:00,54.6,43.5,29.89,NE,45,8.2,8.2,66,0.00,,,0.00,WUHU216HW,2013-05-06 12:45:00,
2013-05-06 07:50:00,54.1,42.9,29.90,NE,45,6.7,8.2,66,0.00,,,0.00,WUHU216HW,2013-05-06 12:50:00,
2013-05-06 07:55:00,53.7,43.0,29.89,NE,45,1.3,6.7,67,0.00,,,0.00,WUHU216HW,2013-05-06 12:55:00,
2013-05-06 08:00:00,53.7,43.4,29.89,ENE,68,4.2,5.3,68,0.00,,,0.00,WUHU216HW,2013-05-06 13:00:00,
2013-05-06 08:05:00,53.9,43.6,29.89,NE,45,0.9,4.2,68,0.00,,,0.00,WUHU216HW,2013-05-06 13:05:00,
2013-05-06 08:10:00,54.1,43.7,29.89,ENE,68,3.8,5.3,68,0.00,,,0.00,WUHU216HW,2013-05-06 13:10:00,
2013-05-06 08:15:00,54.3,43.7,29.89,ENE,68,4.0,5.3,67,0.00,,,0.00,WUHU216HW,2013-05-06 13:15:00,
2013-05-06 08:20:00,55.0,44.2,29.90,NNE,32,6.3,8.2,67,0.00,,,0.00,WUHU216HW,2013-05-06 13:20:00,
2013-05-06 08:25:00,55.4,44.6,29.89,ENE,68,3.3,8.2,67,0.00,,,0.00,WUHU216HW,2013-05-06 13:25:00,
2013-05-06 08:30:00,55.9,44.7,29.89,North,0,0.0,8.2,66,0.00,,,0.00,WUHU216HW,2013-05-06 13:30:00,
2013-05-06 08:35:00,56.3,44.6,29.89,NE,45,2.6,8.5,65,0.00,,,0.00,WUHU216HW,2013-05-06 13:35:00,
2013-05-06 08:40:00,56.4,44.8,29.90,ENE,68,4.2,8.5,65,0.00,,,0.00,WUHU216HW,2013-05-06 13:40:00,
2013-05-06 08:45:00,56.8,45.1,29.90,ENE,68,5.3,5.3,65,0.00,,,0.00,WUHU216HW,2013-05-06 13:45:00,
2013-05-06 08:50:00,57.0,45.3,29.90,NE,45,5.3,6.7,65,0.00,,,0.00,WUHU216HW,2013-05-06 13:50:00,
2013-05-06 08:55:00,57.2,45.1,29.90,ENE,68,0.0,6.7,64,0.00,,,0.00,WUHU216HW,2013-05-06 13:55:00,
2013-05-06 09:00:00,57.7,45.4,29.90,North,0,0.0,6.2,64,0.00,,,0.00,WUHU216HW,2013-05-06 14:00:00,
2013-05-06 09:05:00,58.1,45.9,29.90,NNE,23,0.0,7.3,64,0.00,,,0.00,WUHU216HW,2013-05-06 14:05:00,
2013-05-06 09:11:00,58.6,46.4,29.90,North,0,0.0,7.3,64,0.00,,,0.00,WUHU216HW,2013-05-06 14:11:00,
2013-05-06 09:15:00,58.8,46.6,29.89,NE,45,0.0,4.9,64,0.00,,,0.00,WUHU216HW,2013-05-06 14:15:00,
2013-05-06 09:21:00,58.8,46.2,29.89,North,0,1.1,4.9,63,0.00,,,0.00,WUHU216HW,2013-05-06 14:21:00,
2013-05-06 09:26:00,58.8,45.7,29.89,NE,45,1.4,4.2,62,0.00,,,0.00,WUHU216HW,2013-05-06 14:26:00,
2013-05-06 09:31:00,58.8,46.5,29.89,North,0,0.0,4.2,62,0.00,,,0.00,WUHU216HW,2013-05-06 14:31:00,
2013-05-06 09:36:00,59.3,46.3,29.89,NNE,23,1.7,7.1,62,0.00,,,0.00,WUHU216HW,2013-05-06 14:36:00,
2013-05-06 09:41:00,59.5,46.5,29.89,North,0,2.9,7.1,62,0.00,,,0.00,WUHU216HW,2013-05-06 14:41:00,
2013-05-06 09:46:00,59.7,46.2,29.89,North,0,7.3,7.6,61,0.00,,,0.00,WUHU216HW,2013-05-06 14:46:00,
2013-05-06 09:51:00,59.7,46.2,29.89,NE,45,2.0,7.6,61,0.00,,,0.00,WUHU216HW,2013-05-06 14:51:00,
2013-05-06 09:56:00,59.7,45.8,29.89,NE,45,8.2,8.2,60,0.00,,,0.00,WUHU216HW,2013-05-06 14:56:00,
2013-05-06 10:01:00,60.4,46.9,29.89,North,0,7.8,8.2,61,0.00,,,0.00,WUHU216HW,2013-05-06 15:01:00,
2013-05-06 10:06:00,60.9,47.1,29.89,NNW,338,2.2,7.8,60,0.00,,,0.00,WUHU216HW,2013-05-06 15:06:00,
2013-05-06 10:11:00,61.3,47.4,29.89,North,0,3.3,3.3,60,0.00,,,0.00,WUHU216HW,2013-05-06 15:11:00,
2013-05-06 10:16:00,61.8,47.9,29.90,NNE,23,0.0,3.3,60,0.00,,,0.00,WUHU216HW,2013-05-06 15:16:00,
2013-05-06 10:21:00,62.4,47.4,29.90,NNE,23,0.0,3.3,58,0.00,,,0.00,WUHU216HW,2013-05-06 15:21:00,
2013-05-06 10:26:00,63.1,47.5,29.89,NE,34,6.1,6.4,57,0.00,,,0.00,WUHU216HW,2013-05-06 15:26:00,
2013-05-06 10:31:00,63.1,47.7,29.89,NE,45,0.0,6.4,56,0.00,,,0.00,WUHU216HW,2013-05-06 15:31:00,
2013-05-06 10:36:00,64.2,47.9,29.89,NNW,338,0.0,2.0,56,0.00,,,0.00,WUHU216HW,2013-05-06 15:36:00,
2013-05-06 10:41:00,64.5,47.9,29.89,NE,45,6.9,6.9,55,0.00,,,0.00,WUHU216HW,2013-05-06 15:41:00,
2013-05-06 10:46:00,64.5,47.9,29.89,ENE,68,1.3,6.9,55,0.00,,,0.00,WUHU216HW,2013-05-06 15:46:00,
2013-05-06 10:51:00,64.7,47.6,29.89,NE,45,5.5,6.7,53,0.00,,,0.00,WUHU216HW,2013-05-06 15:51:00,
2013-05-06 10:56:00,64.9,47.8,29.88,North,0,3.5,5.8,54,0.00,,,0.00,WUHU216HW,2013-05-06 15:56:00,
2013-05-06 11:02:00,65.4,48.1,29.89,NE,45,0.0,5.5,54,0.00,,,0.00,WUHU216HW,2013-05-06 16:02:00,
2013-05-06 11:07:00,66.2,48.5,29.88,East,90,1.7,1.7,53,0.00,,,0.00,WUHU216HW,2013-05-06 16:07:00,
2013-05-06 11:12:00,67.1,49.3,29.89,East,90,7.3,7.8,53,0.00,,,0.00,WUHU216HW,2013-05-06 16:12:00,
2013-05-06 11:17:00,67.6,48.9,29.89,NE,45,0.0,8.5,51,0.00,,,0.00,WUHU216HW,2013-05-06 16:17:00,
2013-05-06 11:22:00,67.6,49.3,29.88,ESE,113,8.2,8.5,52,0.00,,,0.00,WUHU216HW,2013-05-06 16:22:00,
2013-05-06 11:27:00,67.8,47.9,29.88,North,0,7.8,8.2,49,0.00,,,0.00,WUHU216HW,2013-05-06 16:27:00,
2013-05-06 11:32:00,67.6,48.4,29.88,East,90,7.8,7.8,50,0.00,,,0.00,WUHU216HW,2013-05-06 16:32:00,
2013-05-06 11:37:00,67.8,48.5,29.88,NE,45,0.0,7.8,50,0.00,,,0.00,WUHU216HW,2013-05-06 16:37:00,
2013-05-06 11:42:00,68.0,48.7,29.89,ENE,76,4.2,8.0,50,0.00,,,0.00,WUHU216HW,2013-05-06 16:42:00,
2013-05-06 11:47:00,68.3,49.5,29.88,NE,45,3.3,8.0,50,0.00,,,0.00,WUHU216HW,2013-05-06 16:47:00,
2013-05-06 11:52:00,68.7,49.3,29.88,East,83,4.8,8.2,50,0.00,,,0.00,WUHU216HW,2013-05-06 16:52:00,
2013-05-06 11:57:00,68.9,49.5,29.88,NE,45,6.7,8.5,50,0.00,,,0.00,WUHU216HW,2013-05-06 16:57:00,
2013-05-06 12:02:00,69.0,49.7,29.88,ESE,113,2.0,8.5,50,0.00,,,0.00,WUHU216HW,2013-05-06 17:02:00,
2013-05-06 12:07:00,69.4,49.4,29.87,ENE,68,5.8,5.8,49,0.00,,,0.00,WUHU216HW,2013-05-06 17:07:00,
2013-05-06 12:12:00,69.4,49.4,29.88,ENE,59,4.6,5.8,49,0.00,,,0.00,WUHU216HW,2013-05-06 17:12:00,
2013-05-06 12:17:00,69.4,48.8,29.87,ENE,68,5.5,7.3,48,0.00,,,0.00,WUHU216HW,2013-05-06 17:17:00,
2013-05-06 12:22:00,69.4,49.4,29.87,ENE,71,6.9,8.5,48,0.00,,,0.00,WUHU216HW,2013-05-06 17:22:00,
2013-05-06 12:27:00,69.6,50.1,29.87,East,90,8.5,8.5,50,0.00,,,0.00,WUHU216HW,2013-05-06 17:27:00,
2013-05-06 12:32:00,69.9,49.9,29.87,ENE,68,1.5,8.5,49,0.00,,,0.00,WUHU216HW,2013-05-06 17:32:00,
2013-05-06 12:37:00,70.3,50.8,29.87,East,90,7.3,7.3,50,0.00,,,0.00,WUHU216HW,2013-05-06 17:37:00,
2013-05-06 12:42:00,70.3,49.6,29.87,ENE,68,4.6,7.3,48,0.00,,,0.00,WUHU216HW,2013-05-06 17:42:00,
2013-05-06 12:47:00,70.3,50.2,29.86,East,90,2.4,7.3,48,0.00,,,0.00,WUHU216HW,2013-05-06 17:47:00,
2013-05-06 12:52:00,70.5,49.2,29.86,ENE,68,8.2,8.2,47,0.00,,,0.00,WUHU216HW,2013-05-06 17:52:00,
2013-05-06 12:58:00,70.5,49.2,29.87,ENE,68,6.9,8.2,47,0.00,,,0.00,WUHU216HW,2013-05-06 17:58:00,
2013-05-06 13:03:00,70.8,50.7,29.86,East,83,3.8,7.6,49,0.00,,,0.00,WUHU216HW,2013-05-06 18:03:00,
2013-05-06 13:08:00,71.2,48.6,29.86,ENE,68,7.4,7.8,45,0.00,,,0.00,WUHU216HW,2013-05-06 18:08:00,
2013-05-06 13:13:00,71.2,49.8,29.86,ESE,113,0.0,7.8,47,0.00,,,0.00,WUHU216HW,2013-05-06 18:13:00,
2013-05-06 13:18:00,71.7,49.1,29.86,ENE,68,7.6,7.6,45,0.00,,,0.00,WUHU216HW,2013-05-06 18:18:00,
2013-05-06 13:23:00,71.7,49.7,29.86,ENE,68,6.7,7.6,46,0.00,,,0.00,WUHU216HW,2013-05-06 18:23:00,
2013-05-06 13:28:00,72.1,49.4,29.86,NE,45,3.3,8.7,45,0.00,,,0.00,WUHU216HW,2013-05-06 18:28:00,
2013-05-06 13:33:00,72.5,48.6,29.85,ENE,72,4.5,8.7,43,0.00,,,0.00,WUHU216HW,2013-05-06 18:33:00,
2013-05-06 13:38:00,72.6,49.9,29.86,East,84,1.4,7.3,45,0.00,,,0.00,WUHU216HW,2013-05-06 18:38:00,
2013-05-06 13:43:00,73.0,50.3,29.86,ENE,68,7.6,7.6,45,0.00,,,0.00,WUHU216HW,2013-05-06 18:43:00,
2013-05-06 13:48:00,73.2,48.6,29.85,NE,45,4.6,7.6,42,0.00,,,0.00,WUHU216HW,2013-05-06 18:48:00,
2013-05-06 13:53:00,73.0,48.5,29.85,NE,52,5.2,7.1,42,0.00,,,0.00,WUHU216HW,2013-05-06 18:53:00,
2013-05-06 13:58:00,73.2,49.8,29.85,NE,45,8.9,8.9,44,0.00,,,0.00,WUHU216HW,2013-05-06 18:58:00,
2013-05-06 14:03:00,73.2,48.0,29.85,East,90,6.4,8.9,41,0.00,,,0.00,WUHU216HW,2013-05-06 19:03:00,
2013-05-06 14:08:00,73.7,47.8,29.86,ENE,67,6.6,8.5,40,0.00,,,0.00,WUHU216HW,2013-05-06 19:08:00,
2013-05-06 14:13:00,73.9,46.6,29.85,East,90,8.2,8.5,38,0.00,,,0.00,WUHU216HW,2013-05-06 19:13:00,
2013-05-06 14:18:00,73.7,47.2,29.85,ESE,113,1.7,8.2,39,0.00,,,0.00,WUHU216HW,2013-05-06 19:18:00,
2013-05-06 14:24:00,73.5,46.3,29.85,ESE,104,6.6,8.2,38,0.00,,,0.00,WUHU216HW,2013-05-06 19:24:00,
2013-05-06 14:29:00,73.5,43.2,29.85,East,90,1.3,8.2,34,0.00,,,0.00,WUHU216HW,2013-05-06 19:29:00,
2013-05-06 14:34:00,73.5,44.0,29.85,ENE,68,4.6,7.8,35,0.00,,,0.00,WUHU216HW,2013-05-06 19:34:00,
2013-05-06 14:39:00,73.7,45.7,29.85,East,98,4.2,10.5,37,0.00,,,0.00,WUHU216HW,2013-05-06 19:39:00,
2013-05-06 14:44:00,73.7,45.7,29.85,East,90,7.8,10.5,37,0.00,,,0.00,WUHU216HW,2013-05-06 19:44:00,
2013-05-06 14:49:00,73.5,46.3,29.84,ESE,113,4.4,7.8,38,0.00,,,0.00,WUHU216HW,2013-05-06 19:49:00,
2013-05-06 14:54:00,73.7,45.7,29.84,ESE,113,6.7,8.0,38,0.00,,,0.00,WUHU216HW,2013-05-06 19:54:00,
2013-05-06 14:59:00,73.5,47.0,29.84,SE,143,6.0,10.5,39,0.00,,,0.00,WUHU216HW,2013-05-06 19:59:00,
2013-05-06 15:04:00,73.2,46.7,29.84,SSE,158,0.0,10.5,39,0.00,,,0.00,WUHU216HW,2013-05-06 20:04:00,
2013-05-06 15:09:00,73.2,48.0,29.84,SSE,158,2.7,7.8,41,0.00,,,0.00,WUHU216HW,2013-05-06 20:09:00,
2013-05-06 15:14:00,73.2,48.0,29.83,SE,135,0.4,7.8,41,0.00,,,0.00,WUHU216HW,2013-05-06 20:14:00,
2013-05-06 15:19:00,73.2,48.0,29.83,SSE,158,1.3,3.8,41,0.00,,,0.00,WUHU216HW,2013-05-06 20:19:00,
2013-05-06 15:24:00,73.4,48.2,29.83,SSE,158,0.0,1.3,41,0.00,,,0.00,WUHU216HW,2013-05-06 20:24:00,
2013-05-06 15:29:00,73.5,47.8,29.83,SSE,158,0.0,7.1,40,0.00,,,0.00,WUHU216HW,2013-05-06 20:29:00,
2013-05-06 15:34:00,73.9,48.7,29.83,SSE,158,0.0,7.1,41,0.00,,,0.00,WUHU216HW,2013-05-06 20:34:00,
2013-05-06 15:39:00,74.3,48.4,29.82,SW,225,0.0,0.0,40,0.00,,,0.00,WUHU216HW,2013-05-06 20:39:00,
2013-05-06 15:44:00,74.4,47.8,29.83,SW,225,0.0,0.0,39,0.00,,,0.00,WUHU216HW,2013-05-06 20:44:00,
2013-05-06 15:49:00,74.8,48.9,29.83,South,180,0.0,0.0,40,0.00,,,0.00,WUHU216HW,2013-05-06 20:49:00,
2013-05-06 15:54:00,75.3,48.6,29.83,SE,135,4.2,4.2,39,0.00,,,0.00,WUHU216HW,2013-05-06 20:54:00,
2013-05-06 15:59:00,75.5,47.3,29.82,East,90,7.8,7.8,37,0.00,,,0.00,WUHU216HW,2013-05-06 20:59:00,
2013-05-06 16:05:00,75.2,44.7,29.82,East,90,3.5,7.8,34,0.00,,,0.00,WUHU216HW,2013-05-06 21:05:00,
2013-05-06 16:10:00,75.2,43.2,29.82,NE,45,0.0,4.9,32,0.00,,,0.00,WUHU216HW,2013-05-06 21:10:00,
2013-05-06 16:15:00,75.3,44.1,29.82,NE,45,1.7,3.1,33,0.00,,,0.00,WUHU216HW,2013-05-06 21:15:00,
2013-05-06 16:20:00,75.5,44.3,29.82,East,93,3.0,10.0,33,0.00,,,0.00,WUHU216HW,2013-05-06 21:20:00,
2013-05-06 16:25:00,75.9,46.1,29.82,East,90,6.2,10.0,35,0.00,,,0.00,WUHU216HW,2013-05-06 21:25:00,
2013-05-06 16:30:00,76.2,47.2,29.81,East,90,5.8,7.3,36,0.00,,,0.00,WUHU216HW,2013-05-06 21:30:00,
2013-05-06 16:35:00,76.6,44.5,29.81,East,90,0.0,6.0,32,0.00,,,0.00,WUHU216HW,2013-05-06 21:35:00,
2013-05-06 16:40:00,76.8,45.4,29.81,East,90,0.0,0.0,33,0.00,,,0.00,WUHU216HW,2013-05-06 21:40:00,
2013-05-06 16:45:00,77.0,44.0,29.81,NNE,23,0.0,0.0,31,0.00,,,0.00,WUHU216HW,2013-05-06 21:45:00,
2013-05-06 16:50:00,76.6,43.0,29.81,NE,45,0.0,8.2,30,0.00,,,0.00,WUHU216HW,2013-05-06 21:50:00,
2013-05-06 16:55:00,76.6,43.7,29.81,ENE,68,0.0,8.2,31,0.00,,,0.00,WUHU216HW,2013-05-06 21:55:00,
2013-05-06 17:00:00,76.2,42.6,29.81,East,90,6.4,7.6,30,0.00,,,0.00,WUHU216HW,2013-05-06 22:00:00,
2013-05-06 17:05:00,76.1,42.5,29.81,ENE,68,5.1,9.1,30,0.00,,,0.00,WUHU216HW,2013-05-06 22:05:00,
2013-05-06 17:11:00,75.9,42.3,29.81,NE,45,0.0,9.1,30,0.00,,,0.00,WUHU216HW,2013-05-06 22:11:00,
2013-05-06 17:16:00,75.9,41.3,29.82,NNE,23,0.8,1.5,29,0.00,,,0.00,WUHU216HW,2013-05-06 22:16:00,
2013-05-06 17:21:00,75.9,41.3,29.82,ENE,68,1.7,3.3,29,0.00,,,0.00,WUHU216HW,2013-05-06 22:21:00,
2013-05-06 17:26:00,75.9,40.2,29.82,NE,45,3.3,3.3,28,0.00,,,0.00,WUHU216HW,2013-05-06 22:26:00,
2013-05-06 17:31:00,75.7,42.2,29.81,ESE,113,0.0,3.3,30,0.00,,,0.00,WUHU216HW,2013-05-06 22:31:00,
2013-05-06 17:36:00,75.5,42.8,29.81,East,90,3.8,3.8,31,0.00,,,0.00,WUHU216HW,2013-05-06 22:36:00,
2013-05-06 17:41:00,75.5,43.5,29.82,East,90,7.3,7.3,32,0.00,,,0.00,WUHU216HW,2013-05-06 22:41:00,
2013-05-06 17:46:00,75.5,42.8,29.81,NE,45,0.0,7.3,31,0.00,,,0.00,WUHU216HW,2013-05-06 22:46:00,
2013-05-06 17:51:00,75.0,40.5,29.82,NNE,23,1.7,4.6,29,0.00,,,0.00,WUHU216HW,2013-05-06 22:51:00,
2013-05-06 17:56:00,75.0,40.5,29.81,NE,45,0.0,1.7,29,0.00,,,0.00,WUHU216HW,2013-05-06 22:56:00,
2013-05-06 18:01:00,74.8,40.3,29.81,East,90,5.3,6.7,29,0.00,,,0.00,WUHU216HW,2013-05-06 23:01:00,
2013-05-06 18:06:00,74.4,40.0,29.82,ENE,68,6.0,8.2,29,0.00,,,0.00,WUHU216HW,2013-05-06 23:06:00,
2013-05-06 18:11:00,74.1,40.7,29.81,NE,45,0.0,8.2,30,0.00,,,0.00,WUHU216HW,2013-05-06 23:11:00,
2013-05-06 18:16:00,74.6,41.2,29.81,NE,45,2.9,6.9,29,0.00,,,0.00,WUHU216HW,2013-05-06 23:16:00,
2013-05-06 18:21:00,75.3,40.8,29.81,NE,45,0.0,4.0,29,0.00,,,0.00,WUHU216HW,2013-05-06 23:21:00,
2013-05-06 18:26:00,75.7,40.1,29.81,NE,45,0.0,6.0,28,0.00,,,0.00,WUHU216HW,2013-05-06 23:26:00,
2013-05-06 18:31:00,76.4,40.7,29.81,NE,45,0.0,6.0,28,0.00,,,0.00,WUHU216HW,2013-05-06 23:31:00,
2013-05-06 18:36:00,77.3,41.6,29.82,ENE,68,0.0,0.0,28,0.00,,,0.00,WUHU216HW,2013-05-06 23:36:00,
2013-05-06 18:41:00,77.7,42.8,29.82,East,90,0.0,0.0,29,0.00,,,0.00,WUHU216HW,2013-05-06 23:41:00,
2013-05-06 18:46:00,76.6,40.9,29.82,East,90,2.0,2.4,28,0.00,,,0.00,WUHU216HW,2013-05-06 23:46:00,
2013-05-06 18:51:00,74.4,39.1,29.82,ENE,68,0.0,2.4,28,0.00,,,0.00,WUHU216HW,2013-05-06 23:51:00,
2013-05-06 18:56:00,73.2,38.9,29.82,NNE,23,0.0,1.5,29,0.00,,,0.00,WUHU216HW,2013-05-06 23:56:00,
2013-05-06 19:01:00,72.3,39.2,29.82,NE,45,0.0,0.0,30,0.00,,,0.00,WUHU216HW,2013-05-07 00:01:00,
2013-05-06 19:06:00,71.4,39.2,29.82,NE,45,0.0,0.0,31,0.00,,,0.00,WUHU216HW,2013-05-07 00:06:00,
2013-05-06 19:11:00,69.9,38.1,29.82,NE,45,0.0,1.3,31,0.00,,,0.00,WUHU216HW,2013-05-07 00:11:00,
2013-05-06 19:16:00,69.0,37.8,29.82,NE,45,0.0,1.3,32,0.00,,,0.00,WUHU216HW,2013-05-07 00:16:00,
2013-05-06 19:21:00,68.5,38.1,29.82,NE,45,0.0,0.0,33,0.00,,,0.00,WUHU216HW,2013-05-07 00:21:00,
2013-05-06 19:26:00,67.8,38.2,29.82,NE,45,0.0,0.0,34,0.00,,,0.00,WUHU216HW,2013-05-07 00:26:00,
2013-05-06 19:31:00,67.2,37.7,29.82,NE,45,0.0,0.0,34,0.00,,,0.00,WUHU216HW,2013-05-07 00:31:00,
2013-05-06 19:36:00,66.7,38.0,29.82,NE,45,0.0,0.0,35,0.00,,,0.00,WUHU216HW,2013-05-07 00:36:00,
2013-05-06 19:41:00,66.0,38.1,29.82,NE,45,0.0,0.0,36,0.00,,,0.00,WUHU216HW,2013-05-07 00:41:00,
2013-05-06 19:46:00,65.4,37.6,29.82,NE,45,0.0,0.0,36,0.00,,,0.00,WUHU216HW,2013-05-07 00:46:00,
2013-05-06 19:51:00,65.1,38.0,29.82,NE,45,0.0,0.0,37,0.00,,,0.00,WUHU216HW,2013-05-07 00:51:00,
2013-05-06 19:56:00,64.5,37.5,29.82,NE,45,0.0,0.0,37,0.00,,,0.00,WUHU216HW,2013-05-07 00:56:00,
2013-05-06 20:01:00,64.0,37.7,29.82,NE,45,0.0,0.0,38,0.00,,,0.00,WUHU216HW,2013-05-07 01:01:00,
2013-05-06 20:06:00,63.5,37.3,29.82,NE,45,0.0,0.0,38,0.00,,,0.00,WUHU216HW,2013-05-07 01:06:00,
2013-05-06 20:11:00,62.9,36.8,29.82,NE,45,0.0,0.0,38,0.00,,,0.00,WUHU216HW,2013-05-07 01:11:00,
2013-05-06 20:16:00,62.6,37.2,29.82,NE,45,0.0,0.0,39,0.00,,,0.00,WUHU216HW,2013-05-07 01:16:00,
2013-05-06 20:21:00,62.4,37.0,29.82,NE,45,0.0,0.0,39,0.00,,,0.00,WUHU216HW,2013-05-07 01:21:00,
2013-05-06 20:26:00,61.8,36.5,29.82,NE,45,0.0,0.0,39,0.00,,,0.00,WUHU216HW,2013-05-07 01:26:00,
2013-05-06 20:31:00,61.7,36.4,29.82,NE,45,0.0,0.0,39,0.00,,,0.00,WUHU216HW,2013-05-07 01:31:00,
2013-05-06 20:36:00,61.3,36.8,29.82,NE,45,0.0,0.0,40,0.00,,,0.00,WUHU216HW,2013-05-07 01:36:00,
2013-05-06 20:41:00,60.9,36.4,29.82,NE,45,0.0,0.0,40,0.00,,,0.00,WUHU216HW,2013-05-07 01:41:00,
2013-05-06 20:46:00,60.6,36.7,29.83,NE,45,0.0,0.0,41,0.00,,,0.00,WUHU216HW,2013-05-07 01:46:00,
2013-05-06 20:51:00,60.2,36.4,29.83,NE,45,0.0,0.0,41,0.00,,,0.00,WUHU216HW,2013-05-07 01:51:00,
2013-05-06 20:56:00,59.9,36.0,29.83,NE,45,0.0,0.0,41,0.00,,,0.00,WUHU216HW,2013-05-07 01:56:00,
2013-05-06 21:01:00,59.5,36.3,29.83,NE,45,0.0,0.0,42,0.00,,,0.00,WUHU216HW,2013-05-07 02:01:00,
2013-05-06 21:06:00,59.5,36.3,29.83,NE,45,0.0,0.0,42,0.00,,,0.00,WUHU216HW,2013-05-07 02:06:00,
2013-05-06 21:11:00,59.3,36.7,29.83,NE,45,0.0,0.0,43,0.00,,,0.00,WUHU216HW,2013-05-07 02:11:00,
2013-05-06 21:16:00,59.3,36.7,29.83,NE,45,0.0,0.0,43,0.00,,,0.00,WUHU216HW,2013-05-07 02:16:00,
2013-05-06 21:21:00,59.5,36.9,29.83,NE,45,0.0,0.0,43,0.00,,,0.00,WUHU216HW,2013-05-07 02:21:00,
2013-05-06 21:26:00,59.9,37.2,29.83,NE,45,0.0,0.0,43,0.00,,,0.00,WUHU216HW,2013-05-07 02:26:00,
2013-05-06 21:31:00,60.0,37.4,29.83,NE,45,0.0,0.0,43,0.00,,,0.00,WUHU216HW,2013-05-07 02:31:00,
2013-05-06 21:37:00,60.4,37.7,29.83,NE,45,0.0,0.0,43,0.00,,,0.00,WUHU216HW,2013-05-07 02:37:00,
2013-05-06 21:42:00,60.4,37.7,29.83,NE,45,0.0,0.0,43,0.00,,,0.00,WUHU216HW,2013-05-07 02:42:00,
2013-05-06 21:47:00,60.4,37.7,29.83,NE,45,0.0,0.0,43,0.00,,,0.00,WUHU216HW,2013-05-07 02:47:00,
2013-05-06 21:52:00,60.4,37.7,29.84,NE,45,0.0,0.0,43,0.00,,,0.00,WUHU216HW,2013-05-07 02:52:00,
2013-05-06 21:57:00,59.9,37.8,29.84,NE,45,0.0,0.0,44,0.00,,,0.00,WUHU216HW,2013-05-07 02:57:00,
2013-05-06 22:02:00,59.3,37.3,29.83,NE,45,0.0,0.0,44,0.00,,,0.00,WUHU216HW,2013-05-07 03:02:00,
2013-05-06 22:07:00,58.8,37.4,29.83,NE,45,0.0,0.0,45,0.00,,,0.00,WUHU216HW,2013-05-07 03:07:00,
2013-05-06 22:12:00,58.2,37.5,29.83,NE,45,0.0,0.0,46,0.00,,,0.00,WUHU216HW,2013-05-07 03:12:00,
2013-05-06 22:17:00,57.9,37.7,29.83,NE,45,0.0,0.0,47,0.00,,,0.00,WUHU216HW,2013-05-07 03:17:00,
2013-05-06 22:22:00,57.7,38.1,29.83,NE,45,0.0,0.0,48,0.00,,,0.00,WUHU216HW,2013-05-07 03:22:00,
2013-05-06 22:27:00,57.0,38.0,29.83,NE,45,0.0,0.0,49,0.00,,,0.00,WUHU216HW,2013-05-07 03:27:00,
2013-05-06 22:32:00,56.8,38.4,29.83,NE,45,0.0,0.0,50,0.00,,,0.00,WUHU216HW,2013-05-07 03:32:00,
2013-05-06 22:37:00,56.8,38.9,29.83,NE,45,0.0,0.0,51,0.00,,,0.00,WUHU216HW,2013-05-07 03:37:00,
2013-05-06 22:42:00,56.8,38.7,29.84,NE,45,0.0,0.0,51,0.00,,,0.00,WUHU216HW,2013-05-07 03:42:00,
2013-05-06 22:47:00,57.2,39.3,29.83,ENE,68,0.0,0.0,51,0.00,,,0.00,WUHU216HW,2013-05-07 03:47:00,
2013-05-06 22:52:00,58.1,39.9,29.83,ENE,68,6.2,6.2,51,0.00,,,0.00,WUHU216HW,2013-05-07 03:52:00,
2013-05-06 22:58:00,58.8,40.7,29.84,ENE,68,0.6,6.2,51,0.00,,,0.00,WUHU216HW,2013-05-07 03:58:00,
2013-05-06 23:01:00,58.8,40.2,29.84,NE,45,2.2,6.2,50,0.00,,,0.00,WUHU216HW,2013-05-07 04:01:00,
2013-05-06 23:02:00,58.8,40.2,29.84,ENE,68,0.6,2.2,50,0.00,,,0.00,WUHU216HW,2013-05-07 04:02:00,
2013-05-06 23:07:00,58.8,40.7,29.84,ENE,68,2.4,2.6,51,0.00,,,0.00,WUHU216HW,2013-05-07 04:07:00,
2013-05-06 23:12:00,58.8,41.2,29.83,ENE,68,0.0,4.6,52,0.00,,,0.00,WUHU216HW,2013-05-07 04:12:00,
2013-05-06 23:17:00,58.8,41.7,29.83,East,90,1.7,4.6,53,0.00,,,0.00,WUHU216HW,2013-05-07 04:17:00,
2013-05-06 23:23:00,58.6,42.0,29.83,East,90,0.0,4.0,54,0.00,,,0.00,WUHU216HW,2013-05-07 04:23:00,
2013-05-06 23:28:00,58.1,41.9,29.84,East,90,0.4,0.4,55,0.00,,,0.00,WUHU216HW,2013-05-07 04:28:00,
2013-05-06 23:33:00,57.9,41.8,29.83,East,90,0.0,0.4,55,0.00,,,0.00,WUHU216HW,2013-05-07 04:33:00,
2013-05-06 23:38:00,57.7,41.6,29.83,ENE,68,0.8,1.7,55,0.00,,,0.00,WUHU216HW,2013-05-07 04:38:00,
2013-05-06 23:43:00,57.5,41.5,29.83,East,90,3.8,5.8,55,0.00,,,0.00,WUHU216HW,2013-05-07 04:43:00,
2013-05-06 23:48:00,57.5,41.5,29.84,East,90,1.3,5.8,55,0.00,,,0.00,WUHU216HW,2013-05-07 04:48:00,
2013-05-06 23:53:00,57.3,41.3,29.84,ESE,113,1.5,2.6,55,0.00,,,0.00,WUHU216HW,2013-05-07 04:53:00,
2013-05-06 23:58:00,57.3,40.8,29.84,East,90,0.0,4.2,54,0.00,,,0.00,WUHU216HW,2013-05-07 04:58:00,